createdAt,value
2022-09-10T00:05:03.553Z,0.77
2022-09-10T00:10:31.046Z,0.78
2022-09-10T00:15:57.758Z,0.82
2022-09-10T00:21:25.901Z,0.88
2022-09-10T00:26:50.931Z,1.07
2022-09-10T00:32:17.974Z,0.79
2022-09-10T00:37:46.010Z,0.83
2022-09-10T00:43:12.620Z,0.90
2022-09-10T00:48:37.377Z,1.00
2022-09-10T00:54:06.111Z,0.88
2022-09-10T00:59:32.773Z,1.12
2022-09-10T01:04:56.873Z,0.97
2022-09-10T01:10:25.410Z,0.88
2022-09-10T01:15:53.642Z,0.82
2022-09-10T01:21:16.592Z,1.09
2022-09-10T01:26:41.638Z,0.66
2022-09-10T01:32:41.178Z,0.62
2022-09-10T01:38:06.933Z,0.63
2022-09-10T01:43:33.247Z,0.71
2022-09-10T01:48:55.021Z,0.60
2022-09-10T01:54:34.685Z,0.93
2022-09-10T02:00:02.967Z,0.66
2022-09-10T02:05:27.056Z,0.54
2022-09-10T02:10:55.046Z,0.56
2022-09-10T02:16:20.885Z,0.51
2022-09-10T02:21:46.918Z,0.55
2022-09-10T02:27:11.466Z,0.37
2022-09-10T02:32:36.162Z,0.54
2022-09-10T02:38:03.588Z,0.47
2022-09-10T02:43:30.921Z,1.22
2022-09-10T02:48:56.715Z,0.55
2022-09-10T02:54:24.009Z,0.62
2022-09-10T02:59:48.014Z,0.57
2022-09-10T03:05:15.831Z,0.60
2022-09-10T03:10:42.753Z,0.66
2022-09-10T03:16:10.514Z,0.78
2022-09-10T03:21:35.636Z,0.57
2022-09-10T03:27:02.892Z,0.96
2022-09-10T03:32:30.556Z,0.60
2022-09-10T03:37:52.321Z,0.66
2022-09-10T03:43:18.907Z,0.41
2022-09-10T03:48:46.352Z,0.56
2022-09-10T03:54:14.250Z,0.51
2022-09-10T03:59:38.339Z,0.65
2022-09-10T04:05:06.255Z,0.66
2022-09-10T04:10:33.243Z,0.75
2022-09-10T04:15:57.572Z,0.64
2022-09-10T04:21:25.064Z,0.77
2022-09-10T04:26:52.419Z,0.79
2022-09-10T04:32:18.636Z,0.76
2022-09-10T04:37:40.361Z,0.68
2022-09-10T04:43:06.803Z,0.92
2022-09-10T04:48:34.268Z,0.94
2022-09-10T04:53:58.516Z,1.04
2022-09-10T04:59:23.382Z,0.97
2022-09-10T05:04:48.923Z,0.77
2022-09-10T05:10:13.530Z,0.93
2022-09-10T05:15:37.873Z,1.10
2022-09-10T05:21:03.618Z,1.18
2022-09-10T05:26:25.103Z,1.20
2022-09-10T05:31:47.024Z,1.17
2022-09-10T05:37:13.687Z,1.12
2022-09-10T05:42:38.166Z,1.05
2022-09-10T05:48:05.679Z,1.23
2022-09-10T05:53:30.081Z,1.13
2022-09-10T05:58:57.740Z,0.93
2022-09-10T06:04:23.273Z,1.27
2022-09-10T06:09:48.206Z,1.33
2022-09-10T06:15:14.565Z,1.21
2022-09-10T06:20:40.117Z,1.50
2022-09-10T06:26:07.197Z,1.10
2022-09-10T06:31:34.216Z,1.35
2022-09-10T06:37:12.955Z,1.37
2022-09-10T06:42:39.432Z,1.52
2022-09-10T06:48:37.856Z,1.16
2022-09-10T06:53:32.225Z,1.10
2022-09-10T06:59:01.627Z,1.52
2022-09-10T07:04:25.627Z,1.84
2022-09-10T07:09:50.780Z,2.04
2022-09-10T07:15:15.106Z,2.22
2022-09-10T07:20:39.812Z,1.74
2022-09-10T07:26:06.767Z,1.81
2022-09-10T07:31:33.189Z,1.86
2022-09-10T07:36:59.277Z,1.80
2022-09-10T07:42:24.636Z,2.10
2022-09-10T07:47:48.799Z,1.98
2022-09-10T07:53:12.724Z,1.90
2022-09-10T07:58:34.538Z,1.75
2022-09-10T08:04:03.046Z,1.55
2022-09-10T08:09:29.067Z,1.82
2022-09-10T08:14:59.845Z,1.62
2022-09-10T08:20:24.100Z,1.49
2022-09-10T08:25:51.653Z,1.41
2022-09-10T08:31:23.260Z,1.03
2022-09-10T08:36:49.478Z,1.06
2022-09-10T08:42:11.224Z,1.12
2022-09-10T08:47:36.878Z,1.43
2022-09-10T08:53:00.626Z,1.06
2022-09-10T08:58:30.589Z,1.07
2022-09-10T09:03:55.506Z,1.45
2022-09-10T09:09:21.448Z,1.04
2022-09-10T09:14:49.350Z,1.04
2022-09-10T09:20:18.863Z,1.04
2022-09-10T09:25:47.340Z,0.99
2022-09-10T09:31:09.600Z,0.83
2022-09-10T09:36:30.770Z,0.98
2022-09-10T09:41:52.831Z,0.87
2022-09-10T09:47:21.834Z,0.98
2022-09-10T09:52:50.248Z,1.26
2022-09-10T09:58:15.603Z,0.93
2022-09-10T10:04:05.470Z,1.16
2022-09-10T10:09:33.833Z,1.33
2022-09-10T10:15:00.551Z,1.14
2022-09-10T10:20:25.507Z,1.25
2022-09-10T10:25:54.786Z,1.09
2022-09-10T10:31:21.823Z,1.24
2022-09-10T10:37:03.722Z,1.04
2022-09-10T10:42:26.354Z,1.00
2022-09-10T10:47:51.482Z,0.89
2022-09-10T10:53:14.628Z,0.96
2022-09-10T10:58:50.070Z,0.74
2022-09-10T11:04:18.654Z,1.13
2022-09-10T11:09:46.318Z,0.89
2022-09-10T11:15:08.976Z,1.06
2022-09-10T11:20:36.575Z,1.31
2022-09-10T11:25:59.009Z,1.40
2022-09-10T11:31:25.538Z,1.25
2022-09-10T11:36:52.843Z,1.44
2022-09-10T11:42:20.367Z,1.33
2022-09-10T11:47:48.006Z,1.48
2022-09-10T11:53:12.868Z,1.47
2022-09-10T11:58:40.079Z,1.70
2022-09-10T12:04:04.644Z,1.29
2022-09-10T12:09:55.698Z,1.07
2022-09-10T12:15:21.932Z,1.14
2022-09-10T12:20:49.431Z,0.56
2022-09-10T12:26:15.566Z,0.63
2022-09-10T12:31:41.735Z,0.48
2022-09-10T12:37:35.793Z,0.48
2022-09-10T12:43:00.884Z,0.33
2022-09-10T12:48:57.744Z,0.68
2022-09-10T12:54:27.956Z,0.51
2022-09-10T12:59:56.316Z,0.57
2022-09-10T13:05:35.708Z,0.40
2022-09-10T13:11:02.563Z,0.32
2022-09-10T13:16:38.093Z,0.31
2022-09-10T13:22:02.459Z,0.29
2022-09-10T13:28:01.370Z,0.27
2022-09-10T13:33:50.463Z,0.29
2022-09-10T13:39:37.301Z,0.23
2022-09-10T13:45:17.475Z,0.24
2022-09-10T13:50:46.617Z,0.34
2022-09-10T13:56:13.981Z,0.22
2022-09-10T14:01:38.174Z,0.29
2022-09-10T14:07:14.282Z,0.29
2022-09-10T14:12:40.858Z,0.26
2022-09-10T14:18:02.555Z,0.32
2022-09-10T14:23:30.575Z,0.29
2022-09-10T14:28:56.450Z,0.36
2022-09-10T14:34:24.396Z,0.23
2022-09-10T14:39:50.034Z,0.25
2022-09-10T14:45:17.162Z,0.15
2022-09-10T14:51:07.821Z,0.30
2022-09-10T14:56:30.708Z,0.26
2022-09-10T15:01:57.441Z,0.20
2022-09-10T15:07:25.276Z,0.22
2022-09-10T15:12:51.593Z,0.26
2022-09-10T15:18:16.684Z,0.29
2022-09-10T15:23:38.787Z,0.39
2022-09-10T15:29:05.548Z,0.31
2022-09-10T15:34:29.688Z,0.26
2022-09-10T15:39:56.898Z,0.31
2022-09-10T15:45:26.175Z,0.40
2022-09-10T15:50:47.906Z,0.38
2022-09-10T15:56:15.133Z,0.26
2022-09-10T16:01:38.556Z,0.31
2022-09-10T16:07:05.341Z,0.33
2022-09-10T16:12:30.625Z,0.33
2022-09-10T16:17:58.869Z,0.23
2022-09-10T16:23:23.911Z,0.46
2022-09-10T16:28:51.471Z,0.28
2022-09-10T16:34:19.255Z,0.28
2022-09-10T16:39:46.322Z,0.26
2022-09-10T16:45:13.043Z,0.35
2022-09-10T16:50:36.859Z,0.40
2022-09-10T16:56:01.484Z,0.65
2022-09-10T17:01:29.018Z,0.53
2022-09-10T17:06:54.097Z,0.68
2022-09-10T17:12:19.480Z,0.67
2022-09-10T17:17:47.082Z,0.65
2022-09-10T17:23:13.231Z,0.94
2022-09-10T17:28:39.306Z,0.60
2022-09-10T17:34:06.594Z,0.66
2022-09-10T17:39:34.210Z,0.70
2022-09-10T17:44:58.763Z,0.83
2022-09-10T17:50:27.945Z,0.83
2022-09-10T17:55:55.383Z,0.81
2022-09-10T18:01:26.563Z,1.12
2022-09-10T18:06:52.738Z,0.92
2022-09-10T18:12:18.012Z,1.05
2022-09-10T18:17:39.654Z,1.05
2022-09-10T18:23:02.668Z,1.09
2022-09-10T18:28:26.707Z,1.22
2022-09-10T18:33:49.857Z,1.37
2022-09-10T18:39:14.852Z,0.99
2022-09-10T18:44:40.243Z,1.44
2022-09-10T18:50:02.305Z,1.43
